Time;durP1;ratioP1;P1;durP2;ratioP2;P2;SDS_P1;SDS_P2;PMS_P1;PMS_P2;Temp;Humidity;BMP_temperature;BMP_pressure;BME280_temperature;BME280_humidity;BME280_pressure;Samples;Min_cycle;Max_cycle;Signal;HPM_P1;HPM_P2
2023/11/18 00:00:22;;;;;;;11.47;5.10;;;5.00;99.90;;;;;;5047658;28;20555;-67
2023/11/18 00:02:50;;;;;;;11.80;5.90;;;5.00;99.90;;;;;;5047463;28;21005;-67
2023/11/18 00:05:19;;;;;;;11.47;5.63;;;4.90;99.90;;;;;;5047300;28;20447;-69
2023/11/18 00:07:46;;;;;;;13.27;6.20;;;5.00;99.90;;;;;;5047123;28;20546;-69
2023/11/18 00:10:16;;;;;;;12.37;6.20;;;5.00;99.90;;;;;;5047543;28;20480;-70
2023/11/18 00:12:44;;;;;;;10.10;5.23;;;5.00;99.90;;;;;;5036528;28;20541;-67
2023/11/18 00:15:12;;;;;;;10.90;5.57;;;5.00;99.90;;;;;;5047118;28;21006;-68
2023/11/18 00:17:43;;;;;;;11.80;5.40;;;4.90;99.90;;;;;;5047215;28;20496;-68
2023/11/18 00:20:13;;;;;;;11.30;5.80;;;4.90;99.90;;;;;;5047311;28;20502;-68
2023/11/18 00:22:42;;;;;;;11.10;5.47;;;5.00;99.90;;;;;;5047417;28;20453;-71
2023/11/18 00:25:10;;;;;;;12.90;5.60;;;5.00;99.90;;;;;;5047362;28;20457;-67
2023/11/18 00:27:40;;;;;;;15.07;4.73;;;5.10;99.90;;;;;;5047590;28;20964;-67
2023/11/18 00:30:10;;;;;;;10.80;5.27;;;5.10;99.90;;;;;;5043230;28;21209;-69
2023/11/18 00:32:39;;;;;;;12.03;5.90;;;5.00;99.90;;;;;;5047326;28;20951;-69
2023/11/18 00:35:10;;;;;;;10.70;4.60;;;5.00;99.90;;;;;;5044599;28;20833;-69
2023/11/18 00:37:38;;;;;;;10.83;4.63;;;4.90;99.90;;;;;;5047031;28;20444;-70
2023/11/18 00:40:09;;;;;;;10.00;5.00;;;5.00;99.90;;;;;;5047396;28;20463;-69
2023/11/18 00:42:37;;;;;;;13.00;5.10;;;4.90;99.90;;;;;;5047131;28;20448;-69
2023/11/18 00:45:07;;;;;;;10.60;4.70;;;5.00;99.90;;;;;;5046753;28;20872;-66
2023/11/18 00:47:35;;;;;;;10.30;4.93;;;5.10;99.90;;;;;;5046905;28;20590;-66
2023/11/18 00:50:07;;;;;;;11.27;5.70;;;5.10;99.90;;;;;;5047373;28;20594;-67
2023/11/18 00:52:38;;;;;;;12.27;4.97;;;5.10;99.90;;;;;;5039630;28;20495;-68
2023/11/18 00:55:08;;;;;;;9.73;4.87;;;5.30;99.90;;;;;;5046949;28;20457;-71
2023/11/18 00:57:38;;;;;;;10.40;4.70;;;5.30;99.90;;;;;;5047257;28;20438;-67
2023/11/18 01:00:13;;;;;;;10.03;4.27;;;5.50;99.90;;;;;;5047313;28;20474;-69
2023/11/18 01:02:41;;;;;;;10.90;4.93;;;5.50;99.90;;;;;;5051477;28;20865;-67
2023/11/18 01:05:11;;;;;;;14.30;4.27;;;5.50;99.90;;;;;;5047925;28;20535;-68
2023/11/18 01:07:40;;;;;;;9.90;4.33;;;5.50;99.90;;;;;;5047521;28;20494;-69
2023/11/18 01:10:09;;;;;;;11.10;4.53;;;5.50;99.90;;;;;;5047852;28;20993;-66
2023/11/18 01:12:38;;;;;;;9.40;4.53;;;5.40;99.90;;;;;;5047952;28;20460;-68
2023/11/18 01:15:10;;;;;;;9.33;3.70;;;5.50;99.90;;;;;;5047322;28;20446;-66
2023/11/18 01:17:38;;;;;;;10.07;3.57;;;5.50;99.90;;;;;;5048115;28;20469;-67
2023/11/18 01:20:10;;;;;;;10.80;4.50;;;5.40;99.90;;;;;;5047292;28;21028;-67
2023/11/18 01:22:39;;;;;;;10.30;4.00;;;5.40;99.90;;;;;;5045624;28;20443;-68
2023/11/18 01:25:09;;;;;;;10.83;4.40;;;5.50;99.90;;;;;;5047455;28;20840;-69
2023/11/18 01:27:37;;;;;;;9.17;4.30;;;5.60;99.90;;;;;;5046303;28;20841;-68
2023/11/18 01:30:06;;;;;;;11.13;4.90;;;5.60;99.90;;;;;;5048979;28;20928;-67
2023/11/18 01:32:35;;;;;;;10.70;4.43;;;5.50;99.90;;;;;;5040422;28;20885;-66
2023/11/18 01:35:04;;;;;;;12.90;4.30;;;5.60;99.90;;;;;;5049097;28;20530;-66
2023/11/18 01:37:32;;;;;;;10.03;4.57;;;5.50;99.90;;;;;;5041473;28;20447;-67
2023/11/18 01:40:04;;;;;;;11.00;4.60;;;5.40;99.90;;;;;;5048637;28;20447;-67
2023/11/18 01:42:32;;;;;;;11.17;4.70;;;5.30;99.90;;;;;;5049580;28;20478;-68
2023/11/18 01:45:03;;;;;;;11.27;4.37;;;5.40;99.90;;;;;;5049279;28;20537;-67
2023/11/18 01:47:33;;;;;;;10.23;4.80;;;5.50;99.90;;;;;;5049930;28;20490;-67
2023/11/18 01:50:06;;;;;;;10.13;4.73;;;5.60;99.90;;;;;;5048833;28;20457;-67
2023/11/18 01:52:34;;;;;;;10.30;4.90;;;5.70;99.90;;;;;;5048748;28;20831;-70
2023/11/18 01:55:06;;;;;;;11.23;6.03;;;5.70;99.90;;;;;;5048794;28;20973;-67
2023/11/18 01:57:34;;;;;;;10.10;4.53;;;5.60;99.90;;;;;;5048781;28;20841;-70
2023/11/18 02:00:06;;;;;;;9.00;4.33;;;5.60;99.90;;;;;;5048550;28;20448;-68
2023/11/18 02:02:37;;;;;;;9.87;5.10;;;5.70;99.90;;;;;;5048855;28;21122;-69
2023/11/18 02:05:07;;;;;;;10.30;4.70;;;5.60;99.90;;;;;;5048796;28;20445;-67
2023/11/18 02:07:37;;;;;;;9.40;4.00;;;5.50;99.90;;;;;;5048371;28;20493;-66
2023/11/18 02:10:08;;;;;;;10.77;5.10;;;5.50;99.90;;;;;;5048464;28;20529;-67
2023/11/18 02:12:43;;;;;;;10.40;4.63;;;5.70;99.90;;;;;;5048541;28;20474;-68
2023/11/18 02:15:12;;;;;;;9.00;4.53;;;5.80;99.90;;;;;;5048234;28;20448;-67
2023/11/18 02:17:43;;;;;;;9.60;4.57;;;5.90;99.90;;;;;;5048517;28;20540;-67
2023/11/18 02:20:15;;;;;;;11.20;4.90;;;5.80;99.90;;;;;;5048524;28;20454;-66
2023/11/18 02:22:46;;;;;;;9.23;4.40;;;5.70;99.90;;;;;;5048293;28;20450;-68
2023/11/18 02:25:17;;;;;;;10.70;4.20;;;5.70;99.90;;;;;;5047778;28;20451;-68
2023/11/18 02:27:47;;;;;;;9.57;4.20;;;5.70;99.90;;;;;;5047866;28;20494;-66
2023/11/18 02:30:16;;;;;;;10.43;4.20;;;5.60;99.90;;;;;;5048077;28;20486;-68
2023/11/18 02:32:50;;;;;;;11.37;4.83;;;5.60;99.90;;;;;;5047949;28;20452;-67
2023/11/18 02:35:25;;;;;;;10.73;4.70;;;5.60;99.90;;;;;;5047785;28;20470;-68
2023/11/18 02:37:56;;;;;;;9.40;4.50;;;5.60;99.90;;;;;;5047271;28;20884;-69
2023/11/18 02:40:30;;;;;;;11.07;5.10;;;5.50;99.90;;;;;;5048290;28;20447;-66
2023/11/18 02:43:01;;;;;;;10.30;4.20;;;5.40;99.90;;;;;;5048157;28;21183;-65
2023/11/18 02:45:31;;;;;;;10.53;5.23;;;5.30;99.90;;;;;;5047590;28;20526;-69
2023/11/18 02:48:00;;;;;;;10.40;4.83;;;5.30;99.90;;;;;;5051859;28;20485;-70
2023/11/18 02:50:29;;;;;;;10.80;4.63;;;5.30;99.90;;;;;;5048195;28;20448;-66
2023/11/18 02:52:57;;;;;;;9.97;4.77;;;5.10;99.90;;;;;;5043700;28;20457;-68
2023/11/18 02:55:25;;;;;;;11.80;5.40;;;5.00;99.90;;;;;;5046174;28;20828;-68
2023/11/18 02:57:53;;;;;;;11.10;5.30;;;4.90;99.90;;;;;;5047426;28;20509;-69
2023/11/18 03:00:23;;;;;;;12.23;5.50;;;4.90;99.90;;;;;;5047639;28;20473;-68
2023/11/18 03:02:51;;;;;;;11.60;6.10;;;4.90;99.90;;;;;;5046905;28;20477;-65
2023/11/18 03:05:21;;;;;;;10.53;5.07;;;4.90;99.90;;;;;;5040312;28;20800;-67
2023/11/18 03:07:51;;;;;;;14.17;5.60;;;4.70;99.90;;;;;;5047623;28;20831;-67
2023/11/18 03:10:21;;;;;;;9.43;4.47;;;4.60;99.90;;;;;;5047826;28;20948;-67
2023/11/18 03:12:50;;;;;;;9.80;5.00;;;4.50;99.90;;;;;;5047529;28;20828;-67
2023/11/18 03:15:19;;;;;;;11.77;5.90;;;4.40;99.90;;;;;;5047238;28;20478;-66
2023/11/18 03:17:49;;;;;;;10.80;5.53;;;4.40;99.90;;;;;;5047293;28;20555;-67
2023/11/18 03:20:19;;;;;;;11.43;5.80;;;4.50;99.90;;;;;;5047470;28;20908;-66
2023/11/18 03:22:47;;;;;;;12.00;5.73;;;4.50;99.90;;;;;;5047685;28;20455;-68
2023/11/18 03:25:16;;;;;;;12.33;5.50;;;4.60;99.90;;;;;;5047483;28;20474;-68
2023/11/18 03:27:45;;;;;;;16.20;5.70;;;4.80;99.90;;;;;;5047499;28;20506;-67
2023/11/18 03:30:13;;;;;;;11.53;5.43;;;4.90;99.90;;;;;;5050867;28;20864;-67
2023/11/18 03:32:41;;;;;;;10.17;5.40;;;4.90;99.90;;;;;;5046951;28;20499;-67
2023/11/18 03:35:11;;;;;;;11.60;6.23;;;4.70;99.90;;;;;;5046925;28;20452;-65
2023/11/18 03:37:40;;;;;;;12.23;5.60;;;4.70;99.90;;;;;;5047315;28;20492;-68
2023/11/18 03:40:11;;;;;;;11.83;5.33;;;4.60;99.90;;;;;;5047768;28;20502;-68
2023/11/18 03:42:39;;;;;;;10.70;4.37;;;4.50;99.90;;;;;;5047869;28;20843;-68
2023/11/18 03:45:10;;;;;;;11.40;5.00;;;4.40;99.90;;;;;;5047170;28;20459;-67
2023/11/18 03:47:39;;;;;;;11.23;5.10;;;4.40;99.90;;;;;;5039256;28;20450;-68
2023/11/18 03:50:09;;;;;;;13.33;5.23;;;4.30;99.90;;;;;;5049240;28;21070;-68
2023/11/18 03:52:38;;;;;;;13.93;6.37;;;4.30;99.90;;;;;;5050902;28;20455;-68
2023/11/18 03:55:07;;;;;;;10.73;5.40;;;4.30;99.90;;;;;;5051182;28;20449;-68
2023/11/18 03:57:35;;;;;;;12.00;6.07;;;4.40;99.90;;;;;;5051158;28;20445;-68
2023/11/18 04:00:04;;;;;;;13.07;6.77;;;4.40;99.90;;;;;;5051007;28;20502;-69
2023/11/18 04:02:34;;;;;;;12.87;6.77;;;4.40;99.90;;;;;;5051066;28;20456;-68
2023/11/18 04:05:03;;;;;;;22.47;6.30;;;4.50;99.90;;;;;;5050549;28;20565;-69
2023/11/18 04:07:31;;;;;;;12.37;6.20;;;4.50;99.90;;;;;;5051103;28;20454;-67
2023/11/18 04:10:01;;;;;;;12.10;6.10;;;4.50;99.90;;;;;;5048892;28;20825;-67
2023/11/18 04:12:30;;;;;;;11.07;5.23;;;4.60;99.90;;;;;;5050431;28;20462;-66
2023/11/18 04:14:58;;;;;;;12.30;5.67;;;4.60;99.90;;;;;;5050297;28;20536;-68
2023/11/18 04:17:27;;;;;;;12.23;5.03;;;4.50;99.90;;;;;;5050312;28;20487;-67
2023/11/18 04:19:56;;;;;;;10.33;4.37;;;4.50;99.90;;;;;;5050527;28;21001;-67
2023/11/18 04:22:24;;;;;;;12.00;5.00;;;4.40;99.90;;;;;;5050832;28;20504;-69
2023/11/18 04:24:52;;;;;;;12.20;5.40;;;4.40;99.90;;;;;;5050475;28;20447;-68
2023/11/18 04:27:22;;;;;;;11.00;4.67;;;4.20;99.90;;;;;;5048640;28;20454;-70
2023/11/18 04:29:50;;;;;;;10.90;4.80;;;4.20;99.90;;;;;;5050663;28;21110;-67
2023/11/18 04:32:19;;;;;;;10.93;4.70;;;4.20;99.90;;;;;;5050446;28;20454;-66
2023/11/18 04:34:49;;;;;;;9.93;4.93;;;4.20;99.90;;;;;;5049925;28;20454;-68
2023/11/18 04:37:17;;;;;;;9.90;4.17;;;4.10;99.90;;;;;;5050588;28;20460;-67
2023/11/18 04:39:45;;;;;;;10.50;5.13;;;4.30;99.90;;;;;;5050295;28;21055;-69
2023/11/18 04:42:15;;;;;;;11.47;5.03;;;4.30;99.90;;;;;;5050206;28;20469;-66
2023/11/18 04:44:44;;;;;;;10.57;4.50;;;4.30;99.90;;;;;;5048675;28;20652;-70
2023/11/18 04:47:12;;;;;;;10.97;4.60;;;4.30;99.90;;;;;;5049938;28;20457;-67
2023/11/18 04:49:41;;;;;;;12.87;5.00;;;4.40;99.90;;;;;;5044588;28;20575;-68
2023/11/18 04:52:09;;;;;;;10.57;5.00;;;4.50;99.90;;;;;;5050236;28;20468;-65
2023/11/18 04:54:36;;;;;;;11.50;5.17;;;4.60;99.90;;;;;;5049533;28;20473;-66
2023/11/18 04:57:05;;;;;;;11.80;5.70;;;4.50;99.90;;;;;;5049781;28;20506;-68
2023/11/18 04:59:33;;;;;;;11.77;5.13;;;4.60;99.90;;;;;;5049686;28;21174;-68
2023/11/18 05:02:03;;;;;;;11.40;4.43;;;4.60;99.90;;;;;;5049026;28;20536;-65
2023/11/18 05:04:31;;;;;;;9.83;4.40;;;4.70;99.90;;;;;;5049165;28;20984;-67
2023/11/18 05:06:59;;;;;;;9.77;4.33;;;4.70;99.90;;;;;;5049742;28;20469;-68
2023/11/18 05:09:27;;;;;;;9.67;3.80;;;4.70;99.90;;;;;;5049522;28;20544;-69
2023/11/18 05:11:55;;;;;;;10.33;3.80;;;4.70;99.90;;;;;;5049599;28;20491;-68
2023/11/18 05:14:22;;;;;;;10.33;4.70;;;4.70;99.90;;;;;;5049512;28;21134;-66
2023/11/18 05:16:50;;;;;;;10.23;4.47;;;4.50;99.90;;;;;;5049270;28;20492;-68
2023/11/18 05:19:20;;;;;;;12.93;4.77;;;4.50;99.90;;;;;;5049176;28;20979;-67
2023/11/18 05:21:49;;;;;;;9.77;3.90;;;4.50;99.90;;;;;;5049773;28;20473;-68
2023/11/18 05:24:17;;;;;;;9.57;3.93;;;4.40;99.90;;;;;;5048712;28;20464;-67
2023/11/18 05:26:45;;;;;;;9.20;4.07;;;4.20;99.90;;;;;;5049261;28;20537;-67
2023/11/18 05:29:16;;;;;;;10.27;4.17;;;4.10;99.90;;;;;;5049679;28;20828;-68
2023/11/18 05:31:45;;;;;;;15.53;4.97;;;4.10;99.90;;;;;;5048904;28;20581;-67
2023/11/18 05:34:13;;;;;;;12.00;5.30;;;4.00;99.90;;;;;;5049138;28;20857;-68
2023/11/18 05:36:42;;;;;;;11.73;5.00;;;4.00;99.90;;;;;;5048002;28;20440;-67
2023/11/18 05:39:10;;;;;;;10.73;4.80;;;4.00;99.90;;;;;;5049083;28;20463;-68
2023/11/18 05:41:39;;;;;;;11.87;5.00;;;3.90;99.90;;;;;;5049003;28;20563;-69
2023/11/18 05:44:17;;;;;;;10.27;4.27;;;3.80;99.90;;;;;;5048889;28;20479;-68
2023/11/18 05:46:46;;;;;;;10.30;4.60;;;3.70;99.90;;;;;;5047857;28;20468;-67
2023/11/18 05:49:14;;;;;;;17.13;7.50;;;3.70;99.90;;;;;;5048579;28;20463;-68
2023/11/18 05:51:44;;;;;;;13.60;5.57;;;3.70;99.90;;;;;;5048780;28;20459;-69
2023/11/18 05:54:12;;;;;;;11.67;5.23;;;3.70;99.90;;;;;;5048685;28;20457;-67
2023/11/18 05:56:40;;;;;;;10.80;5.17;;;3.70;99.90;;;;;;5049223;28;20447;-67
2023/11/18 05:59:08;;;;;;;10.83;5.30;;;3.60;99.90;;;;;;5047467;28;20508;-67
2023/11/18 06:01:37;;;;;;;11.10;5.50;;;3.50;99.90;;;;;;5043155;28;20473;-67
2023/11/18 06:04:08;;;;;;;10.13;5.40;;;3.40;99.90;;;;;;5048407;28;20466;-67
2023/11/18 06:06:37;;;;;;;11.07;5.37;;;3.50;99.90;;;;;;5048387;28;20513;-67
2023/11/18 06:09:09;;;;;;;12.80;5.63;;;3.30;99.90;;;;;;5048569;28;20587;-68
2023/11/18 06:11:37;;;;;;;13.33;6.17;;;3.20;99.90;;;;;;5048652;28;20559;-68
2023/11/18 06:14:08;;;;;;;12.07;5.50;;;3.30;99.90;;;;;;5048233;28;20869;-67
2023/11/18 06:16:37;;;;;;;11.17;4.87;;;3.20;99.90;;;;;;5048305;28;20471;-66
2023/11/18 06:19:09;;;;;;;10.90;4.77;;;3.40;99.90;;;;;;5048392;28;20567;-70
2023/11/18 06:21:37;;;;;;;10.97;4.57;;;3.30;99.90;;;;;;5048093;28;20464;-68
2023/11/18 06:24:11;;;;;;;11.57;4.30;;;3.20;99.90;;;;;;5055936;28;20921;-67
2023/11/18 06:26:39;;;;;;;11.67;5.07;;;3.20;99.90;;;;;;5047910;28;20885;-67
2023/11/18 06:29:07;;;;;;;11.23;4.83;;;3.20;99.90;;;;;;5048759;28;20467;-67
2023/11/18 06:31:34;;;;;;;10.20;4.67;;;3.10;99.90;;;;;;5047174;28;20502;-68
2023/11/18 06:34:03;;;;;;;11.43;4.60;;;3.10;99.90;;;;;;5048119;28;20436;-67
2023/11/18 06:36:31;;;;;;;11.07;5.10;;;3.10;99.90;;;;;;5045041;28;20447;-66
2023/11/18 06:38:59;;;;;;;12.13;4.87;;;3.10;99.90;;;;;;5048061;28;20460;-67
2023/11/18 06:41:33;;;;;;;9.83;4.47;;;3.10;99.90;;;;;;5047926;28;20523;-67
2023/11/18 06:44:08;;;;;;;11.77;4.70;;;3.20;99.90;;;;;;5047824;28;20961;-67
2023/11/18 06:46:39;;;;;;;13.73;5.10;;;3.10;99.90;;;;;;5047745;28;20470;-68
2023/11/18 06:49:10;;;;;;;19.53;6.30;;;3.20;99.90;;;;;;5048240;28;20464;-68
2023/11/18 06:51:39;;;;;;;25.27;7.83;;;3.30;99.90;;;;;;5048330;28;20480;-67
2023/11/18 06:54:10;;;;;;;20.10;5.40;;;3.30;99.90;;;;;;5052774;28;20851;-69
2023/11/18 06:56:42;;;;;;;11.13;5.10;;;3.20;99.90;;;;;;5048365;28;20440;-67
2023/11/18 06:59:12;;;;;;;12.13;5.40;;;3.10;99.90;;;;;;5048930;28;20475;-70
2023/11/18 07:01:42;;;;;;;16.70;6.17;;;3.10;99.90;;;;;;5049790;28;20475;-68
2023/11/18 07:04:10;;;;;;;11.90;5.07;;;3.30;99.90;;;;;;5045185;28;20442;-67
2023/11/18 07:06:39;;;;;;;10.83;5.60;;;3.30;99.90;;;;;;5042348;28;20464;-69
2023/11/18 07:09:13;;;;;;;12.43;5.80;;;3.40;99.90;;;;;;5047568;28;20476;-68
2023/11/18 07:11:43;;;;;;;13.80;5.93;;;3.50;99.90;;;;;;5046566;28;20678;-69
2023/11/18 07:14:12;;;;;;;12.43;6.17;;;3.50;99.90;;;;;;5047439;28;20440;-68
2023/11/18 07:16:41;;;;;;;12.50;6.20;;;3.60;99.90;;;;;;5047372;28;20502;-69
2023/11/18 07:19:14;;;;;;;11.90;4.80;;;3.60;99.90;;;;;;5047656;28;20997;-70
2023/11/18 07:21:43;;;;;;;14.27;7.00;;;3.70;99.90;;;;;;5047367;28;20436;-69
2023/11/18 07:24:11;;;;;;;12.60;5.70;;;3.80;99.90;;;;;;5047049;28;20441;-67
2023/11/18 07:26:39;;;;;;;11.53;5.67;;;3.90;99.90;;;;;;5051305;28;20446;-66
2023/11/18 07:29:08;;;;;;;11.37;5.67;;;4.00;99.90;;;;;;5051371;28;20555;-69
2023/11/18 07:31:36;;;;;;;12.17;5.90;;;4.20;99.90;;;;;;5051904;28;20498;-69
2023/11/18 07:34:05;;;;;;;11.27;5.63;;;4.30;99.90;;;;;;5051421;28;20446;-68
2023/11/18 07:36:33;;;;;;;12.90;5.10;;;4.30;99.90;;;;;;5048945;28;20459;-68
2023/11/18 07:39:02;;;;;;;11.93;5.47;;;4.50;99.90;;;;;;5051333;28;20498;-70
2023/11/18 07:41:32;;;;;;;11.73;5.97;;;4.60;99.90;;;;;;5051048;28;20946;-68
2023/11/18 07:44:01;;;;;;;11.10;5.90;;;4.60;99.90;;;;;;5050245;28;20458;-68
2023/11/18 07:46:31;;;;;;;11.47;6.00;;;4.70;99.90;;;;;;5049610;28;20442;-70
2023/11/18 07:49:01;;;;;;;13.13;6.17;;;4.80;99.90;;;;;;5050787;28;21008;-69
2023/11/18 07:51:29;;;;;;;13.27;5.70;;;4.90;99.90;;;;;;5050981;28;20554;-68
2023/11/18 07:53:58;;;;;;;11.67;5.43;;;4.90;99.90;;;;;;5050836;28;20438;-68
2023/11/18 07:56:27;;;;;;;11.13;5.10;;;5.10;99.90;;;;;;5050865;28;20485;-70
2023/11/18 07:58:55;;;;;;;12.90;6.00;;;5.30;99.90;;;;;;5051202;28;20541;-67
2023/11/18 08:01:23;;;;;;;11.90;5.87;;;5.50;99.90;;;;;;5051287;28;20455;-68
2023/11/18 08:03:52;;;;;;;12.03;6.10;;;5.50;99.90;;;;;;5050759;28;20444;-69
2023/11/18 08:06:21;;;;;;;11.80;6.10;;;5.60;99.90;;;;;;5049359;28;20960;-69
2023/11/18 08:08:49;;;;;;;10.03;4.73;;;5.70;99.90;;;;;;5057510;28;20530;-70
2023/11/18 08:11:17;;;;;;;12.00;5.80;;;5.70;99.90;;;;;;5050889;28;20487;-70
2023/11/18 08:13:45;;;;;;;11.17;5.67;;;5.80;99.90;;;;;;5043173;28;20466;-68
2023/11/18 08:16:14;;;;;;;12.13;6.00;;;5.90;99.90;;;;;;5050929;28;20493;-69
2023/11/18 08:18:42;;;;;;;11.77;5.67;;;6.10;99.90;;;;;;5050657;28;20494;-67
2023/11/18 08:21:12;;;;;;;11.03;5.50;;;6.20;99.90;;;;;;5047846;28;20968;-69
2023/11/18 08:23:41;;;;;;;11.70;5.80;;;6.30;99.90;;;;;;5050334;28;20444;-68
2023/11/18 08:26:12;;;;;;;11.40;6.47;;;6.30;99.90;;;;;;5050894;28;21113;-69
2023/11/18 08:28:40;;;;;;;11.33;5.80;;;6.50;99.90;;;;;;5050272;28;20467;-69
2023/11/18 08:31:09;;;;;;;12.30;6.00;;;6.60;99.90;;;;;;5050964;28;20917;-68
2023/11/18 08:33:37;;;;;;;14.17;6.10;;;6.70;99.90;;;;;;5050540;28;20505;-68
2023/11/18 08:36:07;;;;;;;10.43;5.67;;;6.80;99.90;;;;;;5043647;28;20451;-68
2023/11/18 08:38:37;;;;;;;12.87;5.23;;;6.90;99.90;;;;;;5050192;28;20904;-69
2023/11/18 08:41:08;;;;;;;15.03;6.50;;;6.80;99.90;;;;;;5050494;28;20468;-68
2023/11/18 08:43:36;;;;;;;11.40;5.57;;;6.90;99.90;;;;;;5049974;28;20449;-69
2023/11/18 08:46:07;;;;;;;10.20;5.07;;;6.90;99.90;;;;;;5048838;28;20458;-69
2023/11/18 08:48:35;;;;;;;10.60;5.30;;;7.00;99.90;;;;;;5047878;28;21067;-68
2023/11/18 08:51:03;;;;;;;12.07;5.93;;;7.10;99.90;;;;;;5050342;28;20538;-68
2023/11/18 08:53:36;;;;;;;10.50;5.27;;;7.20;99.90;;;;;;5049990;28;20452;-67
2023/11/18 08:56:06;;;;;;;14.50;4.70;;;7.20;99.90;;;;;;5049920;28;20473;-67
2023/11/18 08:58:36;;;;;;;11.20;5.13;;;7.30;99.90;;;;;;5049482;28;20579;-68
2023/11/18 09:01:13;;;;;;;10.30;4.40;;;7.30;99.90;;;;;;5048495;28;20494;-68
2023/11/18 09:03:48;;;;;;;11.27;4.23;;;7.30;99.90;;;;;;5045857;28;20472;-66
2023/11/18 09:06:18;;;;;;;10.50;5.00;;;7.40;99.90;;;;;;5056218;28;20439;-70
2023/11/18 09:08:52;;;;;;;12.87;5.10;;;7.40;99.90;;;;;;5048620;28;20483;-67
2023/11/18 09:11:24;;;;;;;10.70;4.50;;;7.50;99.90;;;;;;5048811;28;20480;-68
2023/11/18 09:13:54;;;;;;;11.23;4.03;;;7.50;99.90;;;;;;5047851;28;20460;-67
2023/11/18 09:16:25;;;;;;;9.80;4.37;;;7.60;99.90;;;;;;5048885;28;20459;-68
2023/11/18 09:18:53;;;;;;;11.80;4.70;;;7.70;99.90;;;;;;5048944;28;20517;-67
2023/11/18 09:21:24;;;;;;;12.87;4.60;;;7.70;99.90;;;;;;5046866;28;20454;-67
2023/11/18 09:23:53;;;;;;;8.97;4.07;;;7.80;99.90;;;;;;5047372;28;20805;-68
2023/11/18 09:26:25;;;;;;;10.43;3.33;;;8.10;99.90;;;;;;5048849;28;20938;-68
2023/11/18 09:28:54;;;;;;;10.83;4.10;;;8.30;99.90;;;;;;5048685;28;20978;-68
2023/11/18 09:31:22;;;;;;;8.73;3.53;;;8.50;99.90;;;;;;5049616;28;20459;-67
2023/11/18 09:33:52;;;;;;;8.50;3.07;;;8.80;99.90;;;;;;5046921;28;20449;-67
2023/11/18 09:36:22;;;;;;;7.70;2.80;;;9.10;99.90;;;;;;5047744;28;20446;-67
2023/11/18 09:38:50;;;;;;;7.70;2.73;;;9.40;99.90;;;;;;5043398;28;21404;-66
2023/11/18 09:41:18;;;;;;;8.80;2.77;;;9.50;99.90;;;;;;5049263;28;20904;-67
2023/11/18 09:43:52;;;;;;;10.50;3.13;;;9.60;99.90;;;;;;5042042;28;20957;-68
2023/11/18 09:46:24;;;;;;;8.03;3.07;;;9.70;99.90;;;;;;5048582;28;21190;-68
2023/11/18 09:48:59;;;;;;;8.60;2.80;;;9.70;99.90;;;;;;5048816;28;20514;-66
2023/11/18 09:51:30;;;;;;;8.20;2.83;;;9.60;99.90;;;;;;5049909;28;20442;-67
2023/11/18 09:54:01;;;;;;;7.40;2.70;;;9.70;99.90;;;;;;5054291;28;20474;-66
2023/11/18 09:56:37;;;;;;;7.90;2.50;;;9.70;99.90;;;;;;5048772;28;20474;-67
2023/11/18 09:59:15;;;;;;;7.90;2.43;;;9.70;99.90;;;;;;5048750;28;20556;-67
2023/11/18 10:01:46;;;;;;;31.73;5.70;;;9.90;99.90;;;;;;5048666;28;20474;-68
2023/11/18 10:04:17;;;;;;;20.70;4.43;;;10.00;99.90;;;;;;5045945;28;20486;-67
2023/11/18 10:06:48;;;;;;;12.07;3.47;;;10.20;99.90;;;;;;5041044;28;20659;-69
2023/11/18 10:09:17;;;;;;;8.00;2.70;;;10.30;99.90;;;;;;5047222;28;20473;-70
2023/11/18 10:11:47;;;;;;;6.77;1.93;;;10.10;99.90;;;;;;5047481;28;20606;-67
2023/11/18 10:14:17;;;;;;;6.97;1.77;;;10.20;99.90;;;;;;5048132;28;20475;-70
2023/11/18 10:16:49;;;;;;;7.93;2.60;;;10.30;99.90;;;;;;5047817;28;20468;-68
2023/11/18 10:19:17;;;;;;;8.00;2.00;;;10.40;99.90;;;;;;5047697;28;20480;-67
2023/11/18 10:21:48;;;;;;;7.90;2.10;;;10.30;99.90;;;;;;5047793;28;20520;-68
2023/11/18 10:24:20;;;;;;;8.57;2.17;;;10.20;99.90;;;;;;5048419;28;20536;-71
2023/11/18 10:26:57;;;;;;;7.27;2.00;;;10.10;99.90;;;;;;5041572;28;20436;-73
2023/11/18 10:29:28;;;;;;;8.23;2.13;;;10.30;99.90;;;;;;5048400;28;20892;-68
2023/11/18 10:32:15;;;;;;;8.23;2.40;;;10.50;99.90;;;;;;5048111;28;20505;-67
2023/11/18 10:34:45;;;;;;;9.13;2.80;;;10.60;99.90;;;;;;5047845;28;20486;-72
2023/11/18 10:37:16;;;;;;;7.50;2.07;;;10.60;99.90;;;;;;5048180;28;20786;-70
2023/11/18 10:39:47;;;;;;;9.93;1.73;;;10.60;99.90;;;;;;5048157;28;20462;-69
2023/11/18 10:42:17;;;;;;;7.30;2.03;;;10.50;99.90;;;;;;5045481;28;20927;-67
2023/11/18 10:45:01;;;;;;;9.30;2.20;;;10.50;99.90;;;;;;5047280;28;20440;-67
2023/11/18 10:47:33;;;;;;;7.33;2.00;;;10.40;99.90;;;;;;5047957;28;20480;-69
2023/11/18 10:50:01;;;;;;;9.27;2.10;;;10.50;99.90;;;;;;5047837;28;20498;-68
2023/11/18 10:52:34;;;;;;;8.40;1.90;;;10.60;99.90;;;;;;5047704;28;20512;-68
2023/11/18 10:55:11;;;;;;;8.63;2.00;;;10.60;99.90;;;;;;5047554;28;20536;-69
2023/11/18 10:57:41;;;;;;;8.67;1.90;;;10.60;99.90;;;;;;5047980;28;20445;-69
2023/11/18 11:00:14;;;;;;;6.40;1.57;;;10.50;99.90;;;;;;5047183;28;20463;-69
2023/11/18 11:02:43;;;;;;;6.60;1.30;;;10.50;99.90;;;;;;5047998;28;20451;-69
2023/11/18 11:05:15;;;;;;;7.60;1.60;;;10.40;99.90;;;;;;5047725;28;20532;-69
2023/11/18 11:07:50;;;;;;;7.47;1.70;;;10.30;99.90;;;;;;5047816;28;20466;-70
2023/11/18 11:10:24;;;;;;;7.20;1.50;;;10.30;99.90;;;;;;5047959;28;20807;-66
2023/11/18 11:12:56;;;;;;;8.13;1.80;;;10.40;99.90;;;;;;5038216;28;20495;-66
2023/11/18 11:15:31;;;;;;;6.60;1.50;;;10.40;99.90;;;;;;5043604;28;20453;-67
2023/11/18 11:18:27;;;;;;;6.77;1.53;;;10.50;99.90;;;;;;5044402;28;20471;-66
2023/11/18 11:21:04;;;;;;;8.70;2.30;;;10.60;99.90;;;;;;5041539;28;20980;-69
2023/11/18 11:23:43;;;;;;;7.93;1.50;;;10.50;99.90;;;;;;5044757;28;20452;-70
2023/11/18 11:26:22;;;;;;;9.13;1.70;;;10.40;99.90;;;;;;5044106;28;20440;-67
2023/11/18 11:28:57;;;;;;;7.10;1.50;;;10.40;99.90;;;;;;5039643;28;20525;-66
2023/11/18 11:31:33;;;;;;;6.60;1.40;;;10.50;99.90;;;;;;5047505;28;20473;-68
2023/11/18 11:34:06;;;;;;;7.30;1.70;;;10.60;99.90;;;;;;5046960;28;20483;-66
2023/11/18 11:36:41;;;;;;;7.97;2.40;;;10.60;99.90;;;;;;5047303;28;20536;-67
2023/11/18 11:39:14;;;;;;;7.67;1.40;;;10.70;99.90;;;;;;5048004;28;20485;-67
2023/11/18 11:41:47;;;;;;;7.63;1.90;;;10.70;99.90;;;;;;5047470;28;20450;-67
2023/11/18 11:44:16;;;;;;;7.17;1.40;;;10.80;99.90;;;;;;5047083;28;20485;-68
2023/11/18 11:46:52;;;;;;;7.80;1.43;;;10.80;99.90;;;;;;5047337;28;20904;-68
2023/11/18 11:49:27;;;;;;;6.80;1.30;;;10.70;99.90;;;;;;5047427;28;20471;-66
2023/11/18 11:52:03;;;;;;;6.50;1.20;;;10.70;99.90;;;;;;5042112;28;20443;-68
2023/11/18 11:54:38;;;;;;;7.00;1.30;;;10.70;99.90;;;;;;5047517;28;20891;-67
2023/11/18 11:57:06;;;;;;;6.87;1.60;;;10.80;99.90;;;;;;5047666;28;20504;-66
2023/11/18 11:59:56;;;;;;;7.80;1.20;;;10.90;99.90;;;;;;5048032;28;20514;-67
2023/11/18 12:02:28;;;;;;;10.20;1.60;;;10.80;99.90;;;;;;5046541;28;20445;-71
2023/11/18 12:04:59;;;;;;;8.03;1.77;;;10.80;99.90;;;;;;5039048;28;20843;-73
2023/11/18 12:07:28;;;;;;;8.00;1.50;;;10.80;99.90;;;;;;5042096;28;20529;-70
2023/11/18 12:10:00;;;;;;;6.73;1.60;;;10.70;99.90;;;;;;5045677;28;20835;-76
2023/11/18 12:12:30;;;;;;;7.33;1.60;;;10.60;99.90;;;;;;5049227;28;20531;-71
2023/11/18 12:15:11;;;;;;;6.70;1.47;;;10.70;99.90;;;;;;5048915;28;20487;-74
2023/11/18 12:18:14;;;;;;;7.03;1.50;;;10.70;99.90;;;;;;5049027;28;20449;-72
2023/11/18 12:20:47;;;;;;;7.60;1.80;;;10.80;99.90;;;;;;5049176;28;20500;-69
2023/11/18 12:23:15;;;;;;;8.70;1.53;;;10.70;99.90;;;;;;5041506;28;20451;-70
2023/11/18 12:25:45;;;;;;;6.53;1.50;;;10.60;99.90;;;;;;5044168;28;20456;-71
2023/11/18 12:28:16;;;;;;;7.60;1.50;;;10.60;99.90;;;;;;5047166;28;20464;-70
2023/11/18 12:34:05;;;;;;;6.80;1.60;;;10.30;99.90;;;;;;5049931;28;20539;-72
2023/11/18 12:37:11;;;;;;;7.10;1.40;;;10.30;99.90;;;;;;5043568;28;20444;-72
2023/11/18 12:40:13;;;;;;;7.70;1.77;;;10.30;99.90;;;;;;5048875;28;20488;-70
2023/11/18 12:43:00;;;;;;;8.30;1.73;;;10.50;99.90;;;;;;5042819;28;20448;-71
2023/11/18 12:45:45;;;;;;;6.60;1.60;;;10.30;99.90;;;;;;5048306;28;20437;-69
2023/11/18 12:48:16;;;;;;;7.20;1.70;;;10.20;99.90;;;;;;5047105;28;20497;-70
2023/11/18 12:50:45;;;;;;;8.50;2.07;;;10.10;99.90;;;;;;5048322;28;20799;-69
2023/11/18 12:53:16;;;;;;;6.83;1.93;;;10.00;99.90;;;;;;5044449;28;20849;-69
2023/11/18 12:55:44;;;;;;;7.10;1.87;;;9.90;99.90;;;;;;5040861;28;20455;-68
2023/11/18 12:58:12;;;;;;;7.13;1.67;;;9.90;99.90;;;;;;5040724;28;21013;-72
2023/11/18 13:00:42;;;;;;;7.70;1.80;;;9.80;99.90;;;;;;5046602;28;20487;-69
2023/11/18 13:03:15;;;;;;;6.50;1.20;;;9.90;99.90;;;;;;5044958;28;20478;-68
2023/11/18 13:05:45;;;;;;;7.73;1.47;;;9.80;99.90;;;;;;5042833;28;20585;-70
2023/11/18 13:08:15;;;;;;;7.00;2.10;;;9.70;99.90;;;;;;5041736;28;20515;-71